Stations météo

Publicité
Chateau d´Oex, Suisse (6627): Température de l'air & dewpoint: 14.02.2018 01:00:00 - 20.02.2018 01:00:00 (CET)Chateau d´Oex, Suisse (6627): Température de l'air 5cm: 14.02.2018 01:00:00 - 20.02.2018 01:00:00 (CET)Chateau d´Oex, Suisse (6627): Vitesse du vent & gusts: 14.02.2018 01:00:00 - 20.02.2018 01:00:00 (CET)Chateau d´Oex, Suisse (6627): Direction du vent: 14.02.2018 01:00:00 - 20.02.2018 01:00:00 (CET)Chateau d´Oex, Suisse (6627): Ensoleillement: 14.02.2018 01:00:00 - 20.02.2018 01:00:00 (CET)Chateau d´Oex, Suisse (6627): Quantités de précipitations: 14.02.2018 01:00:00 - 20.02.2018 01:00:00 (CET)
Date & Time tt [°C] td [°C] tt 5cm [°C] ff [km/h] ff [knt] fx [km/h] fx [knt] dd sd [min] rr [mm]
20.02.2018 01:00:00 - - - - - - - - - -
20.02.2018 00:00:00 -1,5 -1,9 -1,9 0 0 4 2 S 0 0,0
19.02.2018 23:00:00 -1,2 -2,1 -1,4 3 2 5 3 SSE 0 0,0
19.02.2018 22:00:00 -0,8 -2,2 -1,7 2 1 4 2 N 0 0,0
19.02.2018 21:00:00 -0,8 -2,1 -1,5 2 1 5 3 E 0 0,0
19.02.2018 20:00:00 -0,5 -2,0 -1,0 3 2 9 5 E 0 0,0
19.02.2018 19:00:00 -0,4 -2,0 -0,9 5 3 8 4 SSE 0 0,0
19.02.2018 18:00:00 0,0 -1,7 -0,6 2 1 12 7 S 0 0,0
19.02.2018 17:00:00 1,0 -1,5 1,2 6 3 16 8 S 18 0,0
19.02.2018 16:00:00 2,2 -1,6 4,6 8 4 16 8 S 60 0,0
19.02.2018 15:00:00 2,8 -2,3 7,2 8 4 21 11 SSW 60 0,0
19.02.2018 14:00:00 3,0 -1,6 7,1 12 6 18 10 S 60 0,0
19.02.2018 13:00:00 1,4 -2,6 6,6 4 2 16 9 S 60 0,0
19.02.2018 12:00:00 0,6 -3,7 4,8 8 4 13 7 SSW 60 0,0
19.02.2018 11:00:00 -0,8 -4,2 - 6 3 11 6 SE 60 0,0
19.02.2018 10:00:00 -2,4 -5,6 1,5 3 2 6 3 SSE 60 0,0
19.02.2018 09:00:00 -3,9 -6,0 -4,5 3 2 6 3 W 0 0,0
19.02.2018 08:00:00 -3,4 -5,8 -4,7 3 1 8 4 ENE 0 0,0
19.02.2018 07:00:00 -2,6 -5,5 -3,5 6 3 9 5 E 0 0,0
19.02.2018 06:00:00 -2,3 -5,0 -2,5 4 2 10 5 ESE 0 0,0
19.02.2018 05:00:00 -1,8 -4,6 -2,2 4 2 9 5 NNE 0 0,0
19.02.2018 04:00:00 -1,5 -3,7 -2,0 1 1 5 3 ENE 0 0,0
19.02.2018 03:00:00 -1,6 -3,5 -1,8 3 1 5 3 ESE 0 0,0
19.02.2018 02:00:00 -1,2 -4,1 -1,6 4 2 7 4 E 0 0,0
19.02.2018 01:00:00 -2,0 -2,1 -2,0 0 0 3 2 N 0 0,0
19.02.2018 00:00:00 -2,0 -2,1 -1,8 2 1 4 2 SW 0 0,0
18.02.2018 23:00:00 -1,8 -2,1 -1,9 0 0 4 2 N 0 0,0
18.02.2018 22:00:00 -1,4 -2,2 -1,8 1 1 4 2 SE 0 0,0
18.02.2018 21:00:00 -1,6 -2,2 -1,6 2 1 4 2 S 0 0,0
18.02.2018 20:00:00 -1,8 -2,5 -1,7 1 1 6 3 S 0 0,0
18.02.2018 19:00:00 -1,4 -2,1 -1,4 2 1 8 4 SSE 0 0,0
18.02.2018 18:00:00 -1,3 -1,9 -1,2 3 2 11 6 S 0 0,0
18.02.2018 17:00:00 -0,7 -1,9 -0,6 6 4 15 8 S 0 0,0
18.02.2018 16:00:00 -0,3 -1,8 0,2 7 4 14 7 S 0 0,0
18.02.2018 15:00:00 -0,1 -1,4 1,0 9 5 14 8 SSE 0 0,0
18.02.2018 14:00:00 0,1 -0,9 1,4 9 5 15 8 S 0 0,0
18.02.2018 13:00:00 -0,3 -1,4 0,9 6 3 10 5 S 0 0,0
18.02.2018 12:00:00 -1,1 -1,5 -0,2 4 2 11 6 S 0 0,0
18.02.2018 11:00:00 -1,8 -1,8 -0,8 5 3 9 5 SSE 0 0,0
18.02.2018 10:00:00 -1,7 -1,8 -0,9 4 2 8 4 S 0 0,0
18.02.2018 09:00:00 -1,5 -1,7 -1,3 2 1 6 3 S 0 0,0
18.02.2018 08:00:00 -1,4 -1,7 -1,5 4 2 7 4 S 0 0,0
18.02.2018 07:00:00 -1,7 -1,7 -1,4 4 2 10 6 S 0 0,0
18.02.2018 06:00:00 -1,3 -1,7 -1,3 4 2 8 5 S 0 0,0
18.02.2018 05:00:00 -0,9 -1,4 -0,9 3 2 9 5 S 0 0,0
18.02.2018 04:00:00 -0,8 -1,1 -0,8 4 2 10 5 SSE 0 0,1
18.02.2018 03:00:00 -0,5 -0,9 - 3 2 8 4 SE 0 0,0
18.02.2018 02:00:00 0,2 -0,7 -0,1 5 3 9 5 ESE 0 0,0
18.02.2018 01:00:00 0,5 -0,1 0,1 3 1 11 6 ESE 0 0,0
18.02.2018 00:00:00 0,4 0,1 0,2 4 2 17 9 S 0 0,1
17.02.2018 23:00:00 1,5 1,1 1,2 8 4 14 7 S 0 0,0
17.02.2018 22:00:00 1,6 0,9 1,2 3 2 7 4 ENE 0 0,2
17.02.2018 21:00:00 2,1 1,3 1,6 4 2 8 4 ESE 0 0,2
17.02.2018 20:00:00 2,2 1,3 0,9 5 3 10 5 N 0 0,0
17.02.2018 19:00:00 2,2 1,4 1,5 1 1 9 5 N 0 0,0
17.02.2018 18:00:00 3,8 1,0 2,3 2 1 8 4 ENE 0 0,1
17.02.2018 17:00:00 3,5 2,2 2,9 3 2 19 10 WSW 0 0,6
17.02.2018 16:00:00 3,7 2,5 3,3 9 5 16 9 SW 0 2,7
17.02.2018 15:00:00 4,6 3,1 3,9 5 3 16 9 SW 0 4,3
17.02.2018 14:00:00 5,4 4,3 5,2 3 2 7 4 S 0 2,0
17.02.2018 13:00:00 6,0 4,6 5,4 2 1 9 5 NNW 0 2,0
17.02.2018 12:00:00 6,4 4,5 5,0 6 4 11 6 N 0 1,8
17.02.2018 11:00:00 3,3 3,2 3,3 4 2 8 4 SE 0 1,1
17.02.2018 10:00:00 3,4 3,2 3,3 3 2 8 5 NNW 0 0,1
17.02.2018 09:00:00 2,8 2,5 3,1 4 2 8 4 NNE 0 0,2
17.02.2018 08:00:00 2,7 2,2 2,0 5 3 10 5 WNW 0 0,0
17.02.2018 07:00:00 1,6 1,5 1,4 1 1 6 3 E 0 0,0
17.02.2018 06:00:00 2,3 1,9 1,2 1 1 6 3 NE 0 0,0
17.02.2018 05:00:00 1,7 1,7 1,3 3 1 6 3 SE 0 0,0
17.02.2018 04:00:00 1,6 1,6 1,5 1 0 4 2 ENE 0 0,0
17.02.2018 03:00:00 1,9 1,9 1,6 1 0 6 4 W 0 0,0
17.02.2018 02:00:00 2,1 1,9 1,6 2 1 5 3 NW 0 0,0
17.02.2018 01:00:00 2,2 2,0 1,7 1 1 6 3 NW 0 0,0
17.02.2018 00:00:00 2,2 2,2 1,9 1 0 7 4 WSW 0 0,0
16.02.2018 23:00:00 2,8 2,5 1,8 4 2 8 4 NW 0 0,0
16.02.2018 22:00:00 2,5 2,1 1,8 6 3 7 4 N 0 0,0
16.02.2018 21:00:00 3,0 3,0 2,3 3 2 8 4 NW 0 0,0
16.02.2018 20:00:00 3,2 3,0 2,2 3 1 7 4 N 0 0,2
16.02.2018 19:00:00 2,6 2,6 2,3 1 1 5 3 N 0 0,0
16.02.2018 18:00:00 3,1 3,0 2,6 3 2 7 4 N 0 0,0
16.02.2018 17:00:00 4,7 4,5 3,2 3 1 7 4 N 0 0,0
16.02.2018 16:00:00 4,9 4,7 3,9 1 1 4 2 NE 0 0,1
16.02.2018 15:00:00 5,1 4,9 - 3 1 6 4 ENE 0 0,1
16.02.2018 14:00:00 4,8 4,8 4,3 1 1 6 3 NNE 0 0,4
16.02.2018 13:00:00 4,6 4,5 3,9 2 1 4 2 ESE 0 0,2
16.02.2018 12:00:00 3,9 3,7 3,2 1 0 3 2 WNW 0 0,7
16.02.2018 11:00:00 3,8 3,5 - 3 1 5 3 NW 0 0,4
16.02.2018 10:00:00 3,9 3,5 2,4 5 3 6 3 N 0 0,0
16.02.2018 09:00:00 2,5 2,3 1,9 3 1 8 4 NE 0 1,0
16.02.2018 08:00:00 2,8 2,6 1,6 2 1 8 4 N 0 1,9
16.02.2018 07:00:00 2,5 2,3 1,7 2 1 8 5 NNW 0 0,9
16.02.2018 06:00:00 3,2 2,8 1,7 5 3 8 4 N 0 2,0
16.02.2018 05:00:00 2,4 2,2 1,6 1 1 7 4 NNW 0 1,3
16.02.2018 04:00:00 2,9 2,7 1,8 1 1 8 5 SE 0 0,8
16.02.2018 03:00:00 3,4 3,0 1,8 2 1 6 4 NNE 0 0,0
16.02.2018 02:00:00 2,8 2,7 2,0 1 1 8 4 ENE 0 0,0
16.02.2018 01:00:00 2,6 2,6 1,9 3 1 14 8 ESE 0 0,0
16.02.2018 00:00:00 2,7 2,4 1,9 3 1 8 4 E 0 0,1
15.02.2018 23:00:00 3,6 3,1 1,8 4 2 8 4 N 0 0,9
15.02.2018 22:00:00 2,8 2,7 1,8 3 2 6 3 N 0 0,7
15.02.2018 21:00:00 2,5 2,4 1,5 2 1 6 3 NNE 0 0,6
15.02.2018 20:00:00 2,3 2,2 1,4 1 1 8 4 WNW 0 0,5
15.02.2018 19:00:00 2,2 2,2 1,5 2 1 7 4 NNW 0 0,4
15.02.2018 18:00:00 2,8 2,5 1,5 3 2 6 4 NW 0 0,1
15.02.2018 17:00:00 2,7 2,5 1,8 3 2 6 4 E 0 1,6
15.02.2018 16:00:00 2,0 1,9 1,6 1 1 7 4 NNW 0 0,2
15.02.2018 15:00:00 2,8 2,4 1,9 1 1 5 3 NNW 0 0,5
15.02.2018 14:00:00 1,4 1,4 1,2 3 1 7 4 ESE 0 0,3
15.02.2018 13:00:00 1,1 0,7 0,6 2 1 6 3 ENE 0 0,9
15.02.2018 12:00:00 0,1 0,0 -0,1 1 0 4 2 ESE 0 1,3
15.02.2018 11:00:00 -0,3 -0,9 -0,1 1 0 4 2 SE 0 0,9
15.02.2018 10:00:00 -1,3 -1,7 -0,2 1 1 5 3 SSW 0 1,1
15.02.2018 09:00:00 -2,0 -2,7 -1,5 1 0 5 3 SE 0 0,3
15.02.2018 08:00:00 -2,8 -3,7 -2,6 1 1 4 2 S 0 0,3
15.02.2018 07:00:00 -3,7 -4,9 -3,4 3 2 5 3 W 0 0,1
15.02.2018 06:00:00 -4,0 -5,1 -3,8 1 1 4 2 W 0 0,0
15.02.2018 05:00:00 -3,8 -6,4 -3,9 0 0 14 7 NNE 0 0,0
15.02.2018 04:00:00 -4,6 -6,7 -4,7 2 1 4 2 NW 0 0,0
15.02.2018 03:00:00 -5,5 -7,2 -5,7 0 0 4 2 E 0 0,0
15.02.2018 02:00:00 -5,7 -7,6 -6,6 2 1 6 3 W 0 0,0
15.02.2018 01:00:00 -5,5 -7,6 -8,3 1 1 5 3 WNW 0 0,0
15.02.2018 00:00:00 -6,3 -7,9 -8,6 1 0 6 4 N 0 0,0
14.02.2018 23:00:00 -5,4 -7,3 -7,0 1 1 6 4 SSE 0 0,0
14.02.2018 22:00:00 -5,5 -7,1 -7,1 1 1 4 2 E 0 0,0
14.02.2018 21:00:00 -5,5 -7,2 -7,7 2 1 6 3 NNW 0 0,0
14.02.2018 20:00:00 -4,8 -6,8 -7,9 3 1 9 5 NNE 0 0,0
14.02.2018 19:00:00 -4,0 -6,8 -6,4 6 4 10 5 NNW 0 0,0
14.02.2018 18:00:00 -2,7 -5,7 -5,8 1 1 5 3 N 12 0,0
14.02.2018 17:00:00 -1,1 -5,7 -0,4 2 1 12 7 WSW 55 0,0
14.02.2018 16:00:00 0,6 -6,4 2,2 5 3 12 6 S 60 0,0
14.02.2018 15:00:00 -0,3 -7,4 2,9 5 3 9 5 SW 60 0,0
14.02.2018 14:00:00 -1,0 -9,0 3,4 2 1 9 5 WSW 60 0,0
14.02.2018 13:00:00 -1,6 -8,5 4,1 2 1 7 4 S 60 0,0
14.02.2018 12:00:00 -1,8 -8,6 2,9 2 1 4 2 WSW 36 0,0
14.02.2018 11:00:00 -4,4 -8,0 -1,5 1 0 4 2 SE 0 0,0
14.02.2018 10:00:00 -5,4 -8,2 -4,4 1 0 6 3 W 0 0,0
14.02.2018 09:00:00 -6,3 -8,5 -6,0 3 2 5 3 SE 0 0,0
14.02.2018 08:00:00 -6,7 -8,6 -6,9 1 0 5 3 WNW 0 0,0
14.02.2018 07:00:00 -6,4 -8,6 -6,6 2 1 9 5 NNE 0 0,0
14.02.2018 06:00:00 -6,7 -9,1 -7,4 4 2 8 4 NW 0 0,0
14.02.2018 05:00:00 -7,0 -9,1 -7,4 3 2 8 4 NNW 0 0,0
14.02.2018 04:00:00 -7,5 -9,5 -8,1 1 1 5 3 WNW 0 0,0
14.02.2018 03:00:00 -7,9 -9,6 -8,3 1 1 8 5 WSW 0 0,0
14.02.2018 02:00:00 -8,1 -9,9 -9,1 4 2 8 4 NW 0 0,0
14.02.2018 01:00:00 -8,2 -9,9 -8,7 1 1 8 4 SW 0 0,0

tt = Température de l'air
td = dewpoint
tt 5cm = Température de l'air 5cm
ff = Vitesse du vent
fx = gusts
dd = Direction du vent
sd = Ensoleillement
rr = Quantités de précipitations

stations d'obs. à proximité